バマコ の空港の天気 - METARとTAF

バマコ・セヌー国際空港 ( GABS / BKO ) - マリ バマコ
飛行場実況気象(Metar)
観測時間08/14 19:30 GMT (08/14 19:30 UTC)
風向・風速北 2m/s
視程10km以上
天気現象
少しの雲 雲底高度 550m
少しの雲 雲底高度 760m
気温29℃
湿度74%
気圧1011hPa
METARGABS 141930Z 01004KT 9999 FEW018 FEW025CB 29/24 Q1011 TEMPO TS
過去の天気等 Google飛行場航空写真 Wunderground天気予報

過去48時間のMETAR

飛行場予報(TAF)
発表時間: 8/14 17:00 GMT (8/14 17:00 UTC)
予報対象時間: 14日18時 GMT ~ 16日0時 GMT
風向・風速西南西 3m/s
視程10km以上
全天の4割程度の雲 雲底高度 610m
14日18時 GMT ~ 14日24時 GMT に一時的に
風向・風速東 8m/s 瞬間風速 18m/s
視程4000m
天気現象雷雨
全天の8割程度の雲 雲底高度 300m
全天の8割程度の雲 雲底高度 610m
少しの積乱雲 雲底高度 1010m
TAF GABS 141700Z 1418/1524 24006KT 9999 SCT020
TEMPO 1418/1424 08015G35KT 4000 TSRA BKN010 BKN020 FEW033CB